Time;durP1;ratioP1;P1;durP2;ratioP2;P2;SDS_P1;SDS_P2;PMS_P1;PMS_P2;Temp;Humidity;BMP_temperature;BMP_pressure;BME280_temperature;BME280_humidity;BME280_pressure;Samples;Min_cycle;Max_cycle;Signal;HPM_P1;HPM_P2
2022/09/15 00:01:39;;;;;;;12.10;7.40;;;15.40;99.90;;;;;;5034060;28;20172;-75
2022/09/15 00:04:05;;;;;;;11.33;8.27;;;15.40;99.90;;;;;;5034255;28;20862;-75
2022/09/15 00:06:32;;;;;;;11.20;7.70;;;15.40;99.90;;;;;;5034078;28;20483;-75
2022/09/15 00:08:58;;;;;;;12.13;8.20;;;15.30;99.90;;;;;;5034210;28;21171;-75
2022/09/15 00:11:27;;;;;;;11.80;8.03;;;15.40;99.90;;;;;;5034147;28;20410;-75
2022/09/15 00:13:53;;;;;;;12.80;8.07;;;15.40;99.90;;;;;;5033954;28;20413;-75
2022/09/15 00:16:22;;;;;;;10.33;7.17;;;15.40;99.90;;;;;;5033838;28;20430;-75
2022/09/15 00:18:48;;;;;;;14.23;8.70;;;15.40;99.90;;;;;;5032584;28;20410;-76
2022/09/15 00:21:16;;;;;;;15.00;8.80;;;15.40;99.90;;;;;;5033993;28;20417;-75
2022/09/15 00:23:43;;;;;;;13.40;9.40;;;15.40;99.90;;;;;;5033979;28;20172;-75
2022/09/15 00:26:11;;;;;;;16.67;8.57;;;15.40;99.90;;;;;;5033544;28;20918;-75
2022/09/15 00:28:37;;;;;;;14.10;8.60;;;15.40;99.90;;;;;;5033872;28;20488;-75
2022/09/15 00:31:08;;;;;;;13.93;9.97;;;15.40;99.90;;;;;;5033940;28;20426;-76
2022/09/15 00:33:35;;;;;;;11.37;7.40;;;15.30;99.90;;;;;;5033805;28;20489;-75
2022/09/15 00:36:04;;;;;;;13.83;8.63;;;15.20;99.90;;;;;;5033223;28;20454;-75
2022/09/15 00:38:30;;;;;;;11.30;7.80;;;15.20;99.90;;;;;;5033551;28;20513;-75
2022/09/15 00:40:57;;;;;;;11.37;7.67;;;15.10;99.90;;;;;;5033903;28;20410;-75
2022/09/15 00:43:44;;;;;;;15.97;10.50;;;15.00;99.90;;;;;;5033472;28;20406;-75
2022/09/15 00:46:09;;;;;;;15.47;8.10;;;14.90;99.90;;;;;;5033137;28;20468;-75
2022/09/15 00:48:38;;;;;;;15.17;7.83;;;14.80;99.90;;;;;;5033373;28;20457;-75
2022/09/15 00:51:06;;;;;;;11.87;7.97;;;14.70;99.90;;;;;;5033360;28;20183;-75
2022/09/15 00:53:32;;;;;;;12.30;8.50;;;14.70;99.90;;;;;;5032922;28;20762;-75
2022/09/15 00:55:59;;;;;;;15.13;9.53;;;14.60;99.90;;;;;;5033009;28;20423;-74
2022/09/15 00:58:43;;;;;;;13.00;8.53;;;14.50;99.90;;;;;;5033670;28;20973;-74
2022/09/15 01:01:09;;;;;;;13.03;9.40;;;14.40;99.90;;;;;;5033329;28;20444;-75
2022/09/15 01:03:35;;;;;;;20.67;8.97;;;14.40;99.90;;;;;;5033136;28;20487;-75
2022/09/15 01:06:09;;;;;;;21.73;9.10;;;14.30;99.90;;;;;;5032835;28;21189;-75
2022/09/15 01:08:56;;;;;;;14.70;8.37;;;14.20;99.90;;;;;;5033212;28;20500;-75
2022/09/15 01:11:22;;;;;;;14.47;8.90;;;14.20;99.90;;;;;;5033133;28;20447;-75
2022/09/15 01:13:47;;;;;;;14.93;9.77;;;14.20;99.90;;;;;;5032930;28;20402;-75
2022/09/15 01:16:31;;;;;;;14.90;8.70;;;14.10;99.90;;;;;;5032553;28;20274;-75
2022/09/15 01:19:10;;;;;;;15.53;8.57;;;14.10;99.90;;;;;;5032905;28;20168;-73
2022/09/15 01:21:44;;;;;;;12.57;8.90;;;14.00;99.90;;;;;;5031767;28;20402;-74
2022/09/15 01:24:33;;;;;;;16.20;7.87;;;14.00;99.90;;;;;;5032765;28;20394;-73
2022/09/15 01:27:02;;;;;;;12.37;8.53;;;14.00;99.90;;;;;;5032796;28;20398;-74
2022/09/15 01:29:39;;;;;;;15.60;8.10;;;13.90;99.90;;;;;;5032490;28;20536;-74
2022/09/15 01:35:43;;;;;;;15.00;7.90;;;14.10;99.90;;;;;;5032478;28;20468;-74
2022/09/15 01:38:21;;;;;;;12.73;9.60;;;14.10;99.90;;;;;;5031075;28;20766;-73
2022/09/15 01:41:05;;;;;;;11.83;8.07;;;14.20;99.90;;;;;;5031371;28;20440;-74
2022/09/15 01:43:35;;;;;;;17.33;8.27;;;14.30;99.90;;;;;;5032555;28;20410;-74
2022/09/15 01:46:02;;;;;;;13.90;7.40;;;14.40;99.90;;;;;;5031967;28;20437;-74
2022/09/15 01:48:30;;;;;;;14.03;7.90;;;14.40;99.90;;;;;;5032551;28;20441;-75
2022/09/15 01:51:00;;;;;;;19.70;8.07;;;14.50;99.90;;;;;;5032426;28;20418;-75
2022/09/15 01:53:27;;;;;;;12.63;7.87;;;14.50;99.90;;;;;;5032402;28;20402;-75
2022/09/15 01:55:57;;;;;;;14.13;7.83;;;14.60;99.90;;;;;;5031900;28;20430;-75
2022/09/15 01:58:22;;;;;;;16.73;8.10;;;14.70;99.90;;;;;;5032237;28;20436;-74
2022/09/15 02:01:07;;;;;;;14.70;7.90;;;14.60;99.90;;;;;;5032221;28;20410;-75
2022/09/15 02:03:49;;;;;;;13.23;7.07;;;14.60;99.90;;;;;;5032132;28;20174;-73
2022/09/15 02:06:23;;;;;;;10.33;6.63;;;14.60;99.90;;;;;;5031103;28;20435;-73
2022/09/15 02:08:57;;;;;;;14.47;7.73;;;14.60;99.90;;;;;;5030975;28;20449;-74
2022/09/15 02:11:29;;;;;;;12.10;7.70;;;14.60;99.90;;;;;;5032315;28;20398;-75
2022/09/15 02:14:13;;;;;;;14.63;8.67;;;14.60;99.90;;;;;;5031746;28;20406;-74
2022/09/15 02:16:44;;;;;;;15.33;7.97;;;14.50;99.90;;;;;;5031804;28;20401;-74
2022/09/15 02:19:34;;;;;;;18.53;9.43;;;14.50;99.90;;;;;;5032056;28;20424;-76
2022/09/15 02:22:09;;;;;;;11.67;6.87;;;14.50;99.90;;;;;;5032069;28;20413;-73
2022/09/15 02:24:39;;;;;;;11.47;7.20;;;14.50;99.90;;;;;;5031657;28;20432;-73
2022/09/15 02:27:11;;;;;;;9.63;6.93;;;14.50;99.90;;;;;;5032013;28;20489;-72
2022/09/15 02:29:37;;;;;;;17.63;9.00;;;14.60;99.90;;;;;;5031757;28;20483;-73
2022/09/15 02:32:05;;;;;;;11.30;7.80;;;14.60;99.90;;;;;;5030615;28;20494;-73
2022/09/15 02:34:36;;;;;;;10.03;6.87;;;14.60;99.90;;;;;;5031584;28;20414;-73
2022/09/15 02:37:03;;;;;;;15.83;8.77;;;14.70;99.90;;;;;;5032094;28;20395;-72
2022/09/15 02:39:34;;;;;;;14.77;7.80;;;14.60;99.90;;;;;;5031860;28;20410;-72
2022/09/15 02:42:01;;;;;;;12.03;7.33;;;14.60;99.90;;;;;;5030295;28;20425;-71
2022/09/15 02:44:29;;;;;;;9.77;6.30;;;14.50;99.90;;;;;;5031363;28;20402;-74
2022/09/15 02:46:59;;;;;;;11.57;6.90;;;14.50;99.90;;;;;;5031746;28;20477;-75
2022/09/15 02:49:25;;;;;;;12.90;7.83;;;14.40;99.90;;;;;;5031727;28;20462;-75
2022/09/15 02:51:50;;;;;;;14.53;7.40;;;14.30;99.90;;;;;;5031679;28;20463;-76
2022/09/15 02:54:16;;;;;;;13.10;6.30;;;14.30;99.90;;;;;;5031421;28;20590;-73
2022/09/15 02:56:42;;;;;;;12.10;7.60;;;14.20;99.90;;;;;;5031598;28;20732;-75
2022/09/15 02:59:07;;;;;;;13.00;5.93;;;14.10;99.90;;;;;;5031515;28;20525;-75
2022/09/15 03:01:33;;;;;;;10.50;5.63;;;14.00;99.90;;;;;;5031798;28;20421;-74
2022/09/15 03:04:02;;;;;;;9.50;6.17;;;13.90;99.90;;;;;;5031810;28;20195;-74
2022/09/15 03:06:33;;;;;;;23.67;13.83;;;13.80;99.90;;;;;;5031205;28;20426;-74
2022/09/15 03:09:00;;;;;;;13.77;7.40;;;13.80;99.90;;;;;;5031602;28;20446;-75
2022/09/15 03:11:27;;;;;;;13.93;6.90;;;13.70;99.90;;;;;;5031443;28;20794;-75
2022/09/15 03:13:58;;;;;;;13.73;7.23;;;13.60;99.90;;;;;;5031516;28;21275;-74
2022/09/15 03:16:24;;;;;;;11.00;7.97;;;13.60;99.90;;;;;;5031797;28;20422;-75
2022/09/15 03:18:52;;;;;;;13.10;7.73;;;13.60;99.90;;;;;;5035347;28;20890;-75
2022/09/15 03:21:18;;;;;;;13.90;8.03;;;13.50;99.90;;;;;;5035091;28;20406;-75
2022/09/15 03:23:44;;;;;;;17.63;10.27;;;13.50;99.90;;;;;;5050278;28;20421;-75
2022/09/15 03:26:10;;;;;;;18.10;9.03;;;13.40;99.90;;;;;;5034820;28;20461;-75
2022/09/15 03:28:38;;;;;;;18.97;9.50;;;13.40;99.90;;;;;;5035054;28;20547;-75
2022/09/15 03:31:04;;;;;;;16.50;10.30;;;13.50;99.90;;;;;;5034880;28;20536;-74
2022/09/15 03:33:30;;;;;;;15.50;9.90;;;13.40;99.90;;;;;;5034907;28;20489;-75
2022/09/15 03:35:55;;;;;;;16.27;9.90;;;13.40;99.90;;;;;;5034648;28;20977;-74
2022/09/15 03:38:22;;;;;;;20.30;11.67;;;13.30;99.90;;;;;;5034853;28;20171;-75
2022/09/15 03:41:03;;;;;;;13.27;9.50;;;13.30;99.90;;;;;;5034806;28;20207;-75
2022/09/15 03:43:30;;;;;;;14.47;9.47;;;13.30;99.90;;;;;;5034660;28;20406;-75
2022/09/15 03:45:57;;;;;;;17.10;10.00;;;13.30;99.90;;;;;;5034338;28;20430;-75
2022/09/15 03:48:23;;;;;;;16.57;8.73;;;13.20;99.90;;;;;;5034527;28;20504;-74
2022/09/15 03:50:49;;;;;;;18.03;10.17;;;13.20;99.90;;;;;;5034820;28;20430;-75
2022/09/15 03:53:15;;;;;;;14.83;9.40;;;13.20;99.90;;;;;;5034504;28;20444;-75
2022/09/15 03:55:40;;;;;;;19.97;10.50;;;13.20;99.90;;;;;;5034195;28;20426;-75
2022/09/15 03:58:06;;;;;;;18.77;10.00;;;13.20;99.90;;;;;;5034490;28;20926;-75
2022/09/15 04:00:32;;;;;;;16.10;10.10;;;13.20;99.90;;;;;;5034605;28;20703;-75
2022/09/15 04:02:58;;;;;;;18.77;10.80;;;13.20;99.90;;;;;;5033193;28;20538;-75
2022/09/15 04:05:24;;;;;;;19.80;9.63;;;13.20;99.90;;;;;;5033933;28;20430;-75
2022/09/15 04:07:49;;;;;;;15.63;8.90;;;13.20;99.90;;;;;;5034163;28;20221;-74
2022/09/15 04:10:15;;;;;;;19.37;10.07;;;13.20;99.90;;;;;;5034751;28;20237;-73
2022/09/15 04:12:41;;;;;;;21.37;11.73;;;13.10;99.90;;;;;;5034170;28;20457;-73
2022/09/15 04:15:07;;;;;;;16.20;8.47;;;13.20;99.90;;;;;;5033835;28;20242;-74
2022/09/15 04:17:32;;;;;;;38.83;17.30;;;13.10;99.90;;;;;;5034062;28;20210;-74
2022/09/15 04:19:58;;;;;;;19.60;10.23;;;13.10;99.90;;;;;;5033805;28;20438;-75
2022/09/15 04:22:24;;;;;;;16.90;9.60;;;13.10;99.90;;;;;;5034246;28;20191;-75
2022/09/15 04:24:49;;;;;;;16.33;10.50;;;13.10;99.90;;;;;;5033578;28;20199;-76
2022/09/15 04:27:16;;;;;;;16.73;10.60;;;13.20;99.90;;;;;;5033846;28;20258;-76
2022/09/15 04:29:42;;;;;;;22.53;10.07;;;13.20;99.90;;;;;;5033165;28;20683;-75
2022/09/15 04:32:08;;;;;;;20.23;9.60;;;13.20;99.90;;;;;;5032978;28;20950;-75
2022/09/15 04:34:33;;;;;;;15.40;8.93;;;13.20;99.90;;;;;;5033476;28;20450;-76
2022/09/15 04:36:59;;;;;;;16.50;10.10;;;13.30;99.90;;;;;;5033628;28;20175;-74
2022/09/15 04:39:24;;;;;;;20.23;9.30;;;13.30;99.90;;;;;;5033821;28;20586;-75
2022/09/15 04:41:50;;;;;;;18.27;8.07;;;13.40;99.90;;;;;;5032334;28;20645;-75
2022/09/15 04:44:16;;;;;;;14.77;7.53;;;13.40;99.90;;;;;;5033309;28;20211;-76
2022/09/15 04:46:41;;;;;;;13.70;8.63;;;13.50;99.90;;;;;;5033570;28;20172;-75
2022/09/15 04:49:07;;;;;;;19.13;9.00;;;13.60;99.90;;;;;;5033463;28;20270;-75
2022/09/15 04:51:32;;;;;;;15.57;7.57;;;13.60;99.90;;;;;;5033381;28;20187;-75
2022/09/15 04:53:58;;;;;;;16.07;7.37;;;13.70;99.90;;;;;;5033360;28;20691;-75
2022/09/15 04:56:25;;;;;;;13.30;7.50;;;13.70;99.90;;;;;;5032911;28;20196;-75
2022/09/15 04:58:53;;;;;;;18.30;8.80;;;13.80;99.90;;;;;;5033095;28;20676;-75
2022/09/15 05:01:27;;;;;;;13.00;7.20;;;13.90;99.90;;;;;;5033055;28;20410;-76
2022/09/15 05:03:54;;;;;;;13.57;8.60;;;14.00;99.90;;;;;;5033142;28;20409;-75
2022/09/15 05:06:22;;;;;;;15.90;7.90;;;14.00;99.90;;;;;;5032820;28;20430;-75
2022/09/15 05:08:49;;;;;;;13.20;8.47;;;14.00;99.90;;;;;;5032980;28;20458;-72
2022/09/15 05:11:16;;;;;;;26.43;10.57;;;14.10;99.90;;;;;;5033038;28;20415;-75
2022/09/15 05:13:41;;;;;;;17.63;8.80;;;14.10;99.90;;;;;;5033166;28;20411;-75
2022/09/15 05:16:13;;;;;;;16.00;8.70;;;14.10;99.90;;;;;;5032601;28;20428;-76
2022/09/15 05:18:40;;;;;;;17.33;8.63;;;14.20;99.90;;;;;;5048565;28;20580;-73
2022/09/15 05:21:07;;;;;;;10.77;7.20;;;14.20;99.90;;;;;;5032727;28;20411;-73
2022/09/15 05:23:34;;;;;;;13.17;8.27;;;14.20;99.90;;;;;;5032878;28;20442;-76
2022/09/15 05:26:02;;;;;;;15.00;7.20;;;14.30;99.90;;;;;;5032328;28;20456;-72
2022/09/15 05:28:28;;;;;;;14.90;8.67;;;14.30;99.90;;;;;;5032672;28;20445;-73
2022/09/15 05:30:54;;;;;;;10.87;7.10;;;14.40;99.90;;;;;;5032597;28;20406;-73
2022/09/15 05:33:21;;;;;;;13.00;8.20;;;14.50;99.90;;;;;;5032553;28;20175;-73
2022/09/15 05:35:58;;;;;;;11.77;6.80;;;14.50;99.90;;;;;;5032205;28;20433;-73
2022/09/15 05:38:25;;;;;;;10.27;6.60;;;14.50;99.90;;;;;;5032564;28;20402;-74
2022/09/15 05:40:50;;;;;;;12.70;6.20;;;14.50;99.90;;;;;;5032371;28;20425;-74
2022/09/15 05:43:17;;;;;;;17.23;8.87;;;14.50;99.90;;;;;;5032461;28;20403;-73
2022/09/15 05:45:43;;;;;;;13.73;7.00;;;14.60;99.90;;;;;;5031871;28;20196;-73
2022/09/15 05:48:09;;;;;;;9.87;7.00;;;14.60;99.90;;;;;;5032336;28;20453;-73
2022/09/15 05:50:35;;;;;;;20.30;7.90;;;14.70;99.90;;;;;;5032308;28;20426;-73
2022/09/15 05:53:01;;;;;;;11.80;6.20;;;14.70;99.90;;;;;;5032580;28;20406;-73
2022/09/15 05:55:27;;;;;;;9.77;6.73;;;14.70;99.90;;;;;;5031988;28;20445;-73
2022/09/15 05:57:53;;;;;;;10.93;6.93;;;14.80;99.90;;;;;;5032312;28;20197;-73
2022/09/15 06:00:18;;;;;;;9.27;7.10;;;14.80;99.90;;;;;;5032375;28;20432;-73
2022/09/15 06:02:44;;;;;;;13.00;8.17;;;14.90;99.90;;;;;;5032178;28;20167;-72
2022/09/15 06:05:10;;;;;;;10.20;6.80;;;14.90;99.90;;;;;;5031876;28;20576;-73
2022/09/15 06:07:35;;;;;;;9.87;6.33;;;14.90;99.90;;;;;;5032277;28;20168;-73
2022/09/15 06:10:02;;;;;;;10.43;6.20;;;14.90;99.90;;;;;;5032008;28;20457;-72
2022/09/15 06:12:28;;;;;;;12.77;7.80;;;15.00;99.90;;;;;;5032086;28;20167;-73
2022/09/15 06:14:53;;;;;;;13.07;7.63;;;15.00;99.90;;;;;;5031715;28;20430;-73
2022/09/15 06:17:21;;;;;;;12.47;6.83;;;15.00;99.90;;;;;;5032093;28;20168;-73
2022/09/15 06:19:47;;;;;;;11.43;7.37;;;15.10;99.90;;;;;;5032070;28;20172;-73
2022/09/15 06:22:13;;;;;;;12.67;7.50;;;15.10;99.90;;;;;;5031966;28;20409;-74
2022/09/15 06:24:38;;;;;;;12.70;7.90;;;15.20;99.90;;;;;;5030322;28;20196;-74
2022/09/15 06:27:04;;;;;;;12.90;7.87;;;15.20;99.90;;;;;;5031880;28;20625;-73
2022/09/15 06:29:32;;;;;;;11.10;6.63;;;15.20;99.90;;;;;;5031891;28;20202;-73
2022/09/15 06:32:01;;;;;;;12.63;6.40;;;15.30;99.90;;;;;;5047388;28;20172;-73
2022/09/15 06:34:33;;;;;;;10.73;7.93;;;15.40;99.90;;;;;;5031667;28;20411;-74
2022/09/15 06:36:59;;;;;;;13.47;6.97;;;15.50;99.90;;;;;;5031760;28;20445;-74
2022/09/15 06:39:25;;;;;;;11.50;8.40;;;15.60;99.90;;;;;;5031805;28;20438;-73
2022/09/15 06:41:51;;;;;;;13.87;7.80;;;15.60;99.90;;;;;;5031803;28;20223;-74
2022/09/15 06:44:20;;;;;;;13.27;7.93;;;15.70;99.90;;;;;;5031332;28;20837;-74
2022/09/15 06:46:46;;;;;;;13.60;7.43;;;15.80;99.90;;;;;;5031835;28;20254;-73
2022/09/15 06:49:11;;;;;;;9.43;6.43;;;16.00;99.90;;;;;;5031524;28;20592;-74
2022/09/15 06:51:37;;;;;;;12.70;8.33;;;16.20;99.90;;;;;;5032901;28;20180;-74
2022/09/15 06:54:04;;;;;;;14.80;7.13;;;16.30;99.90;;;;;;5035511;28;20251;-73
2022/09/15 06:56:31;;;;;;;9.67;8.33;;;16.40;99.90;;;;;;5035125;28;20509;-73
2022/09/15 06:58:57;;;;;;;9.33;6.60;;;16.60;99.90;;;;;;5035564;28;20950;-73
2022/09/15 07:01:28;;;;;;;11.57;7.10;;;16.70;99.90;;;;;;5035493;28;20421;-73
2022/09/15 07:03:55;;;;;;;12.57;7.57;;;16.90;99.90;;;;;;5035467;28;20436;-74
2022/09/15 07:06:21;;;;;;;10.30;7.03;;;17.00;99.90;;;;;;5035124;28;20513;-73
2022/09/15 07:08:48;;;;;;;10.87;7.40;;;17.00;99.90;;;;;;5050863;28;20445;-73
2022/09/15 07:11:15;;;;;;;13.30;7.03;;;17.20;99.90;;;;;;5034118;28;20410;-74
2022/09/15 07:13:41;;;;;;;12.37;6.80;;;17.30;99.90;;;;;;5033970;28;20905;-74
2022/09/15 07:16:10;;;;;;;8.20;6.40;;;17.40;99.90;;;;;;5033600;28;20430;-73
2022/09/15 07:18:36;;;;;;;10.87;7.10;;;17.50;99.90;;;;;;5035228;28;20413;-74
2022/09/15 07:21:07;;;;;;;9.43;6.60;;;17.50;99.90;;;;;;5035245;28;20468;-74
2022/09/15 07:23:34;;;;;;;12.90;6.87;;;17.60;99.90;;;;;;5035299;28;20406;-74
2022/09/15 07:26:08;;;;;;;8.13;4.53;;;17.60;99.90;;;;;;5034773;28;20441;-74
2022/09/15 07:28:34;;;;;;;10.30;6.80;;;17.70;99.90;;;;;;5034920;28;20442;-74
2022/09/15 07:31:00;;;;;;;8.73;5.80;;;17.80;99.90;;;;;;5035030;28;20411;-74
2022/09/15 07:33:26;;;;;;;9.10;7.00;;;17.90;99.90;;;;;;5035122;28;20477;-73
2022/09/15 07:35:51;;;;;;;9.40;6.67;;;18.00;99.90;;;;;;5034728;28;20994;-73
2022/09/15 07:38:17;;;;;;;9.53;7.57;;;18.10;99.90;;;;;;5034766;28;20581;-74
2022/09/15 07:40:44;;;;;;;12.90;6.43;;;18.30;99.90;;;;;;5034979;28;20690;-73
2022/09/15 07:43:10;;;;;;;8.50;6.17;;;18.50;99.90;;;;;;5034743;28;20247;-73
2022/09/15 07:45:36;;;;;;;9.37;6.60;;;18.70;99.90;;;;;;5034458;28;20521;-74
2022/09/15 07:48:02;;;;;;;14.03;7.83;;;18.90;99.90;;;;;;5034686;28;20174;-74
2022/09/15 07:50:27;;;;;;;15.30;6.30;;;19.10;99.90;;;;;;5034577;28;21097;-75
2022/09/15 07:52:56;;;;;;;8.90;5.87;;;19.20;99.90;;;;;;5034664;28;20162;-75
2022/09/15 07:55:22;;;;;;;9.00;6.23;;;19.30;99.90;;;;;;5034097;28;20556;-74
2022/09/15 07:57:59;;;;;;;7.10;5.43;;;19.30;99.90;;;;;;5033218;28;20414;-73
2022/09/15 08:00:25;;;;;;;15.40;5.87;;;19.40;99.90;;;;;;5034453;28;20434;-74
2022/09/15 08:02:51;;;;;;;9.30;5.50;;;19.30;99.90;;;;;;5033441;28;20461;-73
2022/09/15 08:05:16;;;;;;;9.60;6.10;;;19.10;99.90;;;;;;5033639;28;20430;-73
2022/09/15 08:07:42;;;;;;;6.50;4.57;;;19.00;99.90;;;;;;5034516;28;20524;-74
2022/09/15 08:10:08;;;;;;;11.73;5.33;;;18.90;99.90;;;;;;5033949;28;20207;-73
2022/09/15 08:12:34;;;;;;;7.20;5.37;;;18.90;99.90;;;;;;5033638;28;20156;-74
2022/09/15 08:15:00;;;;;;;7.20;4.97;;;19.00;99.90;;;;;;5033576;28;20449;-74
2022/09/15 08:17:26;;;;;;;7.13;5.13;;;19.00;99.90;;;;;;5033600;28;20168;-74
2022/09/15 08:19:51;;;;;;;6.20;4.50;;;19.00;99.90;;;;;;5033149;28;20413;-74
2022/09/15 08:22:17;;;;;;;7.83;5.37;;;19.20;99.90;;;;;;5034048;28;20558;-74
2022/09/15 08:24:43;;;;;;;7.40;4.60;;;19.40;99.90;;;;;;5033718;28;20190;-73
2022/09/15 08:27:09;;;;;;;7.10;5.00;;;19.60;99.90;;;;;;5033949;28;20627;-74
2022/09/15 08:29:35;;;;;;;7.23;4.47;;;19.80;99.90;;;;;;5033886;28;20195;-74
2022/09/15 08:32:01;;;;;;;9.93;6.70;;;20.10;99.90;;;;;;5033915;28;20474;-74
2022/09/15 08:34:28;;;;;;;7.77;5.73;;;20.30;99.90;;;;;;5033376;28;20167;-74
2022/09/15 08:36:54;;;;;;;9.70;6.13;;;20.40;99.90;;;;;;5033757;28;20413;-74
2022/09/15 08:39:20;;;;;;;9.60;6.23;;;20.50;99.90;;;;;;5033533;28;20410;-74
2022/09/15 08:41:52;;;;;;;8.00;6.00;;;20.40;99.90;;;;;;5033630;28;20233;-74
2022/09/15 08:44:32;;;;;;;11.80;7.50;;;20.60;99.90;;;;;;5033244;28;20168;-74
2022/09/15 08:47:12;;;;;;;8.33;6.27;;;21.10;99.90;;;;;;5033728;28;20806;-73
2022/09/15 08:50:03;;;;;;;7.17;5.37;;;21.30;99.90;;;;;;5033234;28;20457;-74
2022/09/15 08:52:47;;;;;;;8.73;5.53;;;21.70;99.90;;;;;;5033375;28;20398;-74
2022/09/15 08:55:24;;;;;;;7.73;4.87;;;22.00;99.90;;;;;;5033091;28;20434;-74
2022/09/15 08:57:53;;;;;;;7.00;3.93;;;22.30;99.90;;;;;;5033457;28;20410;-74
2022/09/15 09:00:19;;;;;;;7.87;5.80;;;22.90;99.90;;;;;;5032910;28;20429;-75
2022/09/15 09:03:04;;;;;;;7.00;4.50;;;24.30;99.90;;;;;;5033227;28;20923;-74
2022/09/15 09:05:54;;;;;;;7.23;5.70;;;26.10;99.90;;;;;;5031608;28;20188;-75
2022/09/15 09:08:28;;;;;;;8.53;5.93;;;27.10;99.90;;;;;;5033137;28;20445;-74
2022/09/15 09:11:06;;;;;;;5.20;4.70;;;27.70;99.90;;;;;;5033315;28;20406;-74
2022/09/15 09:13:37;;;;;;;10.03;5.00;;;27.80;98.50;;;;;;5033104;28;20537;-74
2022/09/15 09:16:16;;;;;;;5.37;4.33;;;27.90;94.80;;;;;;5032355;28;20419;-75
2022/09/15 09:19:11;;;;;;;6.30;5.00;;;28.00;96.20;;;;;;5032987;28;20446;-74
2022/09/15 09:21:42;;;;;;;7.17;4.90;;;28.20;94.90;;;;;;5032049;28;20419;-74
2022/09/15 09:24:15;;;;;;;4.40;3.63;;;28.30;94.50;;;;;;5032990;28;20403;-75
2022/09/15 09:26:42;;;;;;;5.70;4.67;;;28.30;94.70;;;;;;5032752;28;20398;-74
2022/09/15 09:29:19;;;;;;;10.10;4.37;;;27.80;91.60;;;;;;5032673;28;20969;-74
2022/09/15 09:31:50;;;;;;;6.80;6.00;;;27.40;90.60;;;;;;5032736;28;20504;-74
2022/09/15 09:34:32;;;;;;;4.90;3.90;;;26.70;93.60;;;;;;5032382;28;20927;-75
2022/09/15 09:37:06;;;;;;;8.03;4.53;;;25.90;94.70;;;;;;5032544;28;20406;-74
2022/09/15 09:39:32;;;;;;;4.70;3.67;;;25.60;97.00;;;;;;5032585;28;20413;-74
2022/09/15 09:41:58;;;;;;;6.23;3.77;;;25.40;99.60;;;;;;5032634;28;20756;-74
2022/09/15 09:44:30;;;;;;;7.00;4.03;;;25.30;99.90;;;;;;5032254;28;20175;-74
2022/09/15 09:46:57;;;;;;;8.23;3.83;;;25.00;99.90;;;;;;5032449;28;20195;-74
2022/09/15 09:49:24;;;;;;;6.70;4.30;;;24.80;99.90;;;;;;5032201;28;20473;-74
2022/09/15 09:51:58;;;;;;;5.70;3.00;;;24.50;99.90;;;;;;5032560;28;20919;-75
2022/09/15 09:54:28;;;;;;;5.90;3.90;;;24.30;99.90;;;;;;5032027;28;21082;-75
2022/09/15 09:56:55;;;;;;;5.93;3.93;;;23.90;99.90;;;;;;5032306;28;20406;-74
2022/09/15 09:59:37;;;;;;;7.70;3.10;;;23.80;99.90;;;;;;5032242;28;20485;-75
2022/09/15 10:02:05;;;;;;;3.20;2.40;;;23.50;99.90;;;;;;5030908;28;20418;-74
2022/09/15 10:04:30;;;;;;;2.70;2.47;;;23.60;99.90;;;;;;5031897;28;20418;-74
2022/09/15 10:06:56;;;;;;;5.23;2.47;;;23.60;99.90;;;;;;5032164;28;20417;-74
2022/09/15 10:09:22;;;;;;;4.90;3.30;;;23.60;99.90;;;;;;5032018;28;20199;-74
2022/09/15 10:11:51;;;;;;;4.20;3.50;;;23.50;99.90;;;;;;5032086;28;20633;-74
2022/09/15 10:14:26;;;;;;;4.80;2.77;;;23.40;99.90;;;;;;5030611;28;20559;-75
2022/09/15 10:17:06;;;;;;;3.27;2.50;;;23.20;99.90;;;;;;5031856;28;20773;-75
2022/09/15 10:19:42;;;;;;;2.83;2.53;;;23.00;99.90;;;;;;5031986;28;20417;-74
2022/09/15 10:22:08;;;;;;;2.37;2.17;;;23.00;99.90;;;;;;5047435;28;20402;-75
2022/09/15 10:24:38;;;;;;;4.20;2.70;;;23.00;99.90;;;;;;5031605;28;20437;-75
2022/09/15 10:27:26;;;;;;;6.10;3.50;;;23.10;99.90;;;;;;5031211;28;20497;-74
2022/09/15 10:29:52;;;;;;;6.07;4.00;;;23.20;99.90;;;;;;5032019;28;21067;-75
2022/09/15 10:32:21;;;;;;;5.80;3.10;;;23.20;99.90;;;;;;5032017;28;20442;-75
2022/09/15 10:34:47;;;;;;;3.63;2.77;;;23.30;99.90;;;;;;5031516;28;20934;-75
2022/09/15 10:37:17;;;;;;;3.93;3.30;;;23.10;99.90;;;;;;5031841;28;20450;-75
2022/09/15 10:39:53;;;;;;;7.10;3.00;;;23.20;99.90;;;;;;5030505;28;20414;-75
2022/09/15 10:42:43;;;;;;;10.03;4.50;;;23.10;99.90;;;;;;5031863;28;20917;-74
2022/09/15 10:45:23;;;;;;;9.37;4.67;;;23.00;99.90;;;;;;5031540;28;21022;-74
2022/09/15 10:48:05;;;;;;;8.17;5.23;;;23.10;99.90;;;;;;5047303;28;20452;-74
2022/09/15 10:50:38;;;;;;;4.87;3.30;;;23.00;99.90;;;;;;5031805;28;20452;-74
2022/09/15 10:53:18;;;;;;;7.10;3.83;;;23.20;99.90;;;;;;5031808;28;21084;-75
2022/09/15 10:55:56;;;;;;;4.80;3.60;;;23.30;99.90;;;;;;5031562;28;20516;-74
2022/09/15 10:59:05;;;;;;;6.53;4.60;;;23.40;99.90;;;;;;5031701;28;20922;-74
2022/09/15 11:01:40;;;;;;;4.30;3.40;;;23.30;99.90;;;;;;5030291;28;20446;-75
2022/09/15 11:04:20;;;;;;;6.23;3.43;;;23.30;99.90;;;;;;5031874;28;20496;-74
2022/09/15 11:07:12;;;;;;;4.03;3.27;;;23.30;99.90;;;;;;5031641;28;20409;-74
2022/09/15 11:09:48;;;;;;;3.67;3.10;;;23.40;99.90;;;;;;5030176;28;20541;-74
2022/09/15 11:12:40;;;;;;;6.77;2.70;;;23.70;99.90;;;;;;5030312;28;20414;-75
2022/09/15 11:15:53;;;;;;;3.50;2.90;;;23.90;99.90;;;;;;5031393;28;20918;-74
2022/09/15 11:18:57;;;;;;;5.20;2.43;;;23.90;99.90;;;;;;5029436;28;20910;-75
2022/09/15 11:21:33;;;;;;;4.60;1.97;;;23.90;99.90;;;;;;5031536;28;20408;-75
2022/09/15 11:24:28;;;;;;;2.40;2.20;;;24.00;99.90;;;;;;5031551;28;20422;-74
2022/09/15 11:27:15;;;;;;;2.50;2.00;;;23.90;99.90;;;;;;5031515;28;20414;-74
2022/09/15 11:30:12;;;;;;;3.30;2.50;;;23.70;99.90;;;;;;5031329;28;20491;-74
2022/09/15 11:32:47;;;;;;;4.93;2.80;;;23.50;99.90;;;;;;5030077;28;20442;-74
2022/09/15 11:35:36;;;;;;;2.13;1.80;;;23.20;99.90;;;;;;5030905;28;20425;-74
2022/09/15 11:38:17;;;;;;;6.27;2.70;;;23.20;99.90;;;;;;5031901;28;20478;-75
2022/09/15 11:40:54;;;;;;;2.10;1.90;;;23.50;99.90;;;;;;5034759;28;20434;-74
2022/09/15 11:43:39;;;;;;;2.00;1.70;;;23.90;99.90;;;;;;5034958;28;20417;-74
2022/09/15 11:46:14;;;;;;;4.40;2.50;;;24.30;99.90;;;;;;5033115;28;20437;-74
2022/09/15 11:48:45;;;;;;;2.43;1.60;;;24.20;99.90;;;;;;5034703;28;20449;-75
2022/09/15 11:51:14;;;;;;;3.40;1.70;;;24.20;99.90;;;;;;5034849;28;20505;-74
2022/09/15 11:53:47;;;;;;;11.10;1.70;;;24.10;99.90;;;;;;5034648;28;20914;-74
2022/09/15 11:56:25;;;;;;;4.40;1.67;;;24.10;99.90;;;;;;5034255;28;20461;-74
2022/09/15 11:59:19;;;;;;;3.93;1.77;;;23.90;99.90;;;;;;5034723;28;20426;-74
2022/09/15 12:02:01;;;;;;;3.80;1.90;;;23.70;99.90;;;;;;5034411;28;20402;-75
2022/09/15 12:05:11;;;;;;;5.53;1.60;;;23.30;99.90;;;;;;5034316;28;20795;-75
2022/09/15 12:08:03;;;;;;;2.30;1.70;;;23.20;99.90;;;;;;5033933;28;20513;-75
2022/09/15 12:10:40;;;;;;;3.73;1.07;;;22.70;99.90;;;;;;5034363;28;20390;-75
2022/09/15 12:13:11;;;;;;;3.43;1.70;;;22.50;99.90;;;;;;5049921;28;20402;-74
2022/09/15 12:15:37;;;;;;;1.60;1.07;;;22.20;99.90;;;;;;5032833;28;20461;-75
2022/09/15 12:18:24;;;;;;;6.83;2.00;;;22.00;99.90;;;;;;5034226;28;20887;-74
2022/09/15 12:21:09;;;;;;;1.80;1.03;;;21.80;99.90;;;;;;5034206;28;20155;-74
2022/09/15 12:23:44;;;;;;;1.60;1.50;;;21.70;99.90;;;;;;5034165;28;20394;-74
2022/09/15 12:26:16;;;;;;;3.30;1.47;;;21.60;99.90;;;;;;5033973;28;20422;-74
2022/09/15 12:28:45;;;;;;;3.33;1.70;;;21.70;99.90;;;;;;5033982;28;20478;-74
2022/09/15 12:31:32;;;;;;;11.63;2.10;;;21.90;99.90;;;;;;5033872;28;20473;-74
2022/09/15 12:34:18;;;;;;;2.13;1.20;;;22.40;99.90;;;;;;5033757;28;20737;-74
2022/09/15 12:36:48;;;;;;;5.10;1.00;;;23.00;99.90;;;;;;5033753;28;20489;-74
2022/09/15 12:39:36;;;;;;;7.93;2.10;;;23.60;99.90;;;;;;5033678;28;20760;-74
2022/09/15 12:42:22;;;;;;;1.70;1.17;;;24.20;99.90;;;;;;5033920;28;20410;-74
2022/09/15 12:44:59;;;;;;;2.83;1.20;;;24.60;99.90;;;;;;5033256;28;20479;-74
2022/09/15 12:47:43;;;;;;;1.93;1.13;;;24.70;99.90;;;;;;5033722;28;20394;-74
2022/09/15 12:50:14;;;;;;;5.03;1.20;;;24.40;99.90;;;;;;5032949;28;20897;-74
2022/09/15 12:52:44;;;;;;;2.47;1.70;;;24.00;99.90;;;;;;5033246;28;20431;-75
2022/09/15 12:55:23;;;;;;;2.40;1.10;;;23.70;99.90;;;;;;5033110;28;20922;-75
2022/09/15 12:57:53;;;;;;;3.83;1.20;;;23.50;99.90;;;;;;5032338;28;20432;-74
2022/09/15 13:00:29;;;;;;;2.50;1.77;;;23.10;99.90;;;;;;5033283;28;20444;-74
2022/09/15 13:02:56;;;;;;;4.60;1.63;;;22.80;99.90;;;;;;5032136;28;20602;-74
2022/09/15 13:05:40;;;;;;;3.40;1.60;;;22.60;99.90;;;;;;5031829;28;20426;-73